createdAt,value
2018-05-04T00:00:18.184Z,9.55
2018-05-04T00:01:18.131Z,9.43
2018-05-04T00:02:18.083Z,9.43
2018-05-04T00:03:18.069Z,9.40
2018-05-04T00:04:18.018Z,9.44
2018-05-04T00:05:17.942Z,9.36
2018-05-04T00:06:17.895Z,9.40
2018-05-04T00:07:17.855Z,9.44
2018-05-04T00:08:17.790Z,9.39
2018-05-04T00:09:17.784Z,9.39
2018-05-04T00:10:17.689Z,9.37
2018-05-04T00:11:17.646Z,9.36
2018-05-04T00:12:17.589Z,9.29
2018-05-04T00:13:17.540Z,9.25
2018-05-04T00:14:17.526Z,9.25
2018-05-04T00:15:17.483Z,9.21
2018-05-04T00:16:17.393Z,9.19
2018-05-04T00:17:17.343Z,9.14
2018-05-04T00:18:17.300Z,9.14
2018-05-04T00:19:17.247Z,9.13
2018-05-04T00:20:17.249Z,9.16
2018-05-04T00:21:17.148Z,9.14
2018-05-04T00:22:17.098Z,9.11
2018-05-04T00:23:17.047Z,9.10
2018-05-04T00:24:16.995Z,9.11
2018-05-04T00:25:16.988Z,9.10
2018-05-04T00:26:16.930Z,9.04
2018-05-04T00:27:16.851Z,9.03
2018-05-04T00:28:16.808Z,9.00
2018-05-04T00:29:16.758Z,9.10
2018-05-04T00:30:16.716Z,9.14
2018-05-04T00:31:16.686Z,9.02
2018-05-04T00:32:16.601Z,9.06
2018-05-04T00:33:16.554Z,8.95
2018-05-04T00:34:16.500Z,8.95
2018-05-04T00:35:16.453Z,8.97
2018-05-04T00:36:16.439Z,9.03
2018-05-04T00:37:16.358Z,8.91
2018-05-04T00:38:16.313Z,8.88
2018-05-04T00:39:16.254Z,9.00
2018-05-04T00:40:16.222Z,9.02
2018-05-04T00:41:16.196Z,9.00
2018-05-04T00:42:16.105Z,8.99
2018-05-04T00:43:16.058Z,9.02
2018-05-04T00:44:16.014Z,8.99
2018-05-04T00:45:15.958Z,9.00
2018-05-04T00:46:15.940Z,8.89
2018-05-04T00:47:15.860Z,8.85
2018-05-04T00:48:15.819Z,8.89
2018-05-04T00:49:15.802Z,8.85
2018-05-04T00:50:15.713Z,8.89
2018-05-04T00:51:15.665Z,8.92
2018-05-04T00:52:15.609Z,8.84
2018-05-04T00:53:15.563Z,8.79
2018-05-04T00:54:15.544Z,8.81
2018-05-04T00:55:15.460Z,8.81
2018-05-04T00:56:15.408Z,8.76
2018-05-04T00:57:15.405Z,8.82
2018-05-04T00:58:15.347Z,8.85
2018-05-04T00:59:15.271Z,8.70
2018-05-04T01:00:15.217Z,8.69
2018-05-04T01:01:15.164Z,8.76
2018-05-04T01:02:15.150Z,8.71
2018-05-04T01:03:15.067Z,8.69
2018-05-04T01:04:15.020Z,8.64
2018-05-04T01:05:15.018Z,8.78
2018-05-04T01:06:14.914Z,8.78
2018-05-04T01:07:14.873Z,8.74
2018-05-04T01:08:14.818Z,8.73
2018-05-04T01:09:14.766Z,8.71
2018-05-04T01:10:14.755Z,8.70
2018-05-04T01:11:14.666Z,8.67
2018-05-04T01:12:14.620Z,8.66
2018-05-04T01:13:14.562Z,8.60
2018-05-04T01:14:14.553Z,8.51
2018-05-04T01:15:14.474Z,8.66
2018-05-04T01:16:14.417Z,8.53
2018-05-04T01:17:14.367Z,8.56
2018-05-04T01:18:14.316Z,8.55
2018-05-04T01:19:14.310Z,8.48
2018-05-04T01:20:14.216Z,8.42
2018-05-04T01:21:14.168Z,8.42
2018-05-04T01:22:14.121Z,8.36
2018-05-04T01:23:14.063Z,8.36
2018-05-04T01:24:14.054Z,8.34
2018-05-04T01:25:13.969Z,8.34
2018-05-04T01:26:13.922Z,8.20
2018-05-04T01:27:13.868Z,8.31
2018-05-04T01:28:13.820Z,8.28
2018-05-04T01:29:13.808Z,8.18
2018-05-04T01:30:13.717Z,8.24
2018-05-04T01:31:13.665Z,8.23
2018-05-04T01:32:13.619Z,8.28
2018-05-04T01:33:13.569Z,8.23
2018-05-04T01:34:13.562Z,8.19
2018-05-04T01:35:13.465Z,8.20
2018-05-04T01:36:13.448Z,8.26
2018-05-04T01:37:13.367Z,8.20
2018-05-04T01:38:13.321Z,8.16
2018-05-04T01:39:13.275Z,8.15
2018-05-04T01:40:13.268Z,8.16
2018-05-04T01:41:13.173Z,8.06
2018-05-04T01:42:13.118Z,8.03
2018-05-04T01:43:13.068Z,7.95
2018-05-04T01:44:13.016Z,7.93
2018-05-04T01:45:13.002Z,7.98
2018-05-04T01:46:12.915Z,7.88
2018-05-04T01:47:12.867Z,7.93
2018-05-04T01:48:12.825Z,7.77
2018-05-04T01:49:12.768Z,7.72
2018-05-04T01:50:12.749Z,7.80
2018-05-04T01:51:12.669Z,7.79
2018-05-04T01:52:12.622Z,7.73
2018-05-04T01:53:12.565Z,7.80
2018-05-04T01:54:12.518Z,7.75
2018-05-04T01:55:12.514Z,7.70
2018-05-04T01:56:12.414Z,7.75
2018-05-04T01:57:12.371Z,7.75
2018-05-04T01:58:12.320Z,7.77
2018-05-04T01:59:12.262Z,7.73
2018-05-04T02:00:12.260Z,7.67
2018-05-04T02:01:12.171Z,7.61
2018-05-04T02:02:12.118Z,7.67
2018-05-04T02:03:12.061Z,7.60
2018-05-04T02:04:12.017Z,7.63
2018-05-04T02:05:12.007Z,7.63
2018-05-04T02:06:11.916Z,7.60
2018-05-04T02:07:11.866Z,7.56
2018-05-04T02:08:11.813Z,7.54
2018-05-04T02:09:11.797Z,7.51
2018-05-04T02:10:11.709Z,7.53
2018-05-04T02:11:11.693Z,7.53
2018-05-04T02:12:11.611Z,7.51
2018-05-04T02:13:11.556Z,7.48
2018-05-04T02:14:11.505Z,7.45
2018-05-04T02:15:11.459Z,7.48
2018-05-04T02:16:11.449Z,7.50
2018-05-04T02:17:11.359Z,7.56
2018-05-04T02:18:11.307Z,7.50
2018-05-04T02:19:11.257Z,7.54
2018-05-04T02:20:11.216Z,7.54
2018-05-04T02:21:11.197Z,7.39
2018-05-04T02:22:11.109Z,7.45
2018-05-04T02:23:11.057Z,7.31
2018-05-04T02:24:11.018Z,7.42
2018-05-04T02:25:10.960Z,7.28
2018-05-04T02:26:10.967Z,7.29
2018-05-04T02:27:10.859Z,7.17
2018-05-04T02:28:10.805Z,7.02
2018-05-04T02:29:10.754Z,6.96
2018-05-04T02:30:10.701Z,6.92
2018-05-04T02:31:10.695Z,6.87
2018-05-04T02:32:10.609Z,6.93
2018-05-04T02:33:10.565Z,6.87
2018-05-04T02:34:10.508Z,6.85
2018-05-04T02:35:10.453Z,6.82
2018-05-04T02:36:10.439Z,6.75
2018-05-04T02:37:10.384Z,6.87
2018-05-04T02:38:10.297Z,6.85
2018-05-04T02:39:10.252Z,6.89
2018-05-04T02:40:10.201Z,6.93
2018-05-04T02:41:10.185Z,6.93
2018-05-04T02:42:10.093Z,6.95
2018-05-04T02:43:10.050Z,6.99
2018-05-04T02:44:09.994Z,7.00
2018-05-04T02:45:09.944Z,7.05
2018-05-04T02:46:09.942Z,7.11
2018-05-04T02:47:09.847Z,7.14
2018-05-04T02:48:09.789Z,7.06
2018-05-04T02:49:09.742Z,7.14
2018-05-04T02:50:09.693Z,7.05
2018-05-04T02:51:09.673Z,7.15
2018-05-04T02:52:09.597Z,7.17
2018-05-04T02:53:09.574Z,7.13
2018-05-04T02:54:09.486Z,7.17
2018-05-04T02:55:09.441Z,7.05
2018-05-04T02:56:09.388Z,7.07
2018-05-04T02:57:09.368Z,7.06
2018-05-04T02:58:09.280Z,7.05
2018-05-04T02:59:09.265Z,7.00
2018-05-04T03:00:09.183Z,6.92
2018-05-04T03:01:09.134Z,6.78
2018-05-04T03:02:09.100Z,6.64
2018-05-04T03:03:09.074Z,6.66
2018-05-04T03:04:08.984Z,6.54
2018-05-04T03:05:08.936Z,6.49
2018-05-04T03:06:08.874Z,6.54
2018-05-04T03:07:08.824Z,6.59
2018-05-04T03:08:08.816Z,6.56
2018-05-04T03:09:08.719Z,6.57
2018-05-04T03:10:08.681Z,6.56
2018-05-04T03:11:08.619Z,6.63
2018-05-04T03:12:08.611Z,6.67
2018-05-04T03:13:08.521Z,6.74
2018-05-04T03:14:08.469Z,6.67
2018-05-04T03:15:08.464Z,6.72
2018-05-04T03:16:08.364Z,6.77
2018-05-04T03:17:08.313Z,6.74
2018-05-04T03:18:08.272Z,6.79
2018-05-04T03:19:08.214Z,6.79
2018-05-04T03:20:08.194Z,6.74
2018-05-04T03:21:08.116Z,6.79
2018-05-04T03:22:08.128Z,6.77
2018-05-04T03:23:08.020Z,6.75
2018-05-04T03:24:08.001Z,6.79
2018-05-04T03:25:07.916Z,6.78
2018-05-04T03:26:07.923Z,6.81
2018-05-04T03:27:07.806Z,6.72
2018-05-04T03:28:07.762Z,6.77
2018-05-04T03:29:07.715Z,6.67
2018-05-04T03:30:07.662Z,6.64
2018-05-04T03:31:07.639Z,6.59
2018-05-04T03:32:07.554Z,6.66
2018-05-04T03:33:07.502Z,6.59
2018-05-04T03:34:07.448Z,6.51
2018-05-04T03:35:07.405Z,6.51
2018-05-04T03:36:07.394Z,6.45
2018-05-04T03:37:07.292Z,6.36
2018-05-04T03:38:07.243Z,6.27
2018-05-04T03:39:07.195Z,6.27
2018-05-04T03:40:07.140Z,6.19
2018-05-04T03:41:07.134Z,6.16
2018-05-04T03:42:07.047Z,6.20
2018-05-04T03:43:06.998Z,6.16
2018-05-04T03:44:06.941Z,6.16
2018-05-04T03:45:06.895Z,6.09
2018-05-04T03:46:06.870Z,6.09
2018-05-04T03:47:06.781Z,6.05
2018-05-04T03:48:06.729Z,6.08
2018-05-04T03:49:06.684Z,6.05
2018-05-04T03:50:06.628Z,6.09
2018-05-04T03:51:06.620Z,6.11
2018-05-04T03:52:06.596Z,6.19
2018-05-04T03:53:06.475Z,6.14
2018-05-04T03:54:06.427Z,6.22
2018-05-04T03:55:06.428Z,6.09
2018-05-04T03:56:06.324Z,6.09
2018-05-04T03:57:06.271Z,6.11
2018-05-04T03:58:06.230Z,6.11
2018-05-04T03:59:06.176Z,6.22
2018-05-04T04:00:08.220Z,6.11
2018-05-04T04:01:06.071Z,6.08
2018-05-04T04:02:06.018Z,6.09
2018-05-04T04:03:05.959Z,6.07
2018-05-04T04:04:05.920Z,6.07
2018-05-04T04:05:05.865Z,5.94
2018-05-04T04:06:05.850Z,5.86
2018-05-04T04:07:05.756Z,5.93
2018-05-04T04:08:05.758Z,6.04
2018-05-04T04:09:05.653Z,6.08
2018-05-04T04:10:05.601Z,6.05
2018-05-04T04:11:05.551Z,6.02
2018-05-04T04:12:05.496Z,6.07
2018-05-04T04:13:05.486Z,6.07
2018-05-04T04:14:05.431Z,6.07
2018-05-04T04:15:05.352Z,6.07
2018-05-04T04:16:05.298Z,6.09
2018-05-04T04:17:05.239Z,6.05
2018-05-04T04:18:05.253Z,6.07
2018-05-04T04:19:05.184Z,6.05
2018-05-04T04:20:05.087Z,6.09
2018-05-04T04:21:05.042Z,6.09
2018-05-04T04:22:04.995Z,6.07
2018-05-04T04:23:04.930Z,6.08
2018-05-04T04:24:04.916Z,6.07
2018-05-04T04:25:04.835Z,6.04
2018-05-04T04:26:04.830Z,5.99
2018-05-04T04:27:04.729Z,6.07
2018-05-04T04:28:04.676Z,5.93
2018-05-04T04:29:04.642Z,5.86
2018-05-04T04:30:04.569Z,5.80
2018-05-04T04:31:04.556Z,5.75
2018-05-04T04:32:04.472Z,5.76
2018-05-04T04:33:04.453Z,5.82
2018-05-04T04:34:04.368Z,5.82
2018-05-04T04:35:04.316Z,5.86
2018-05-04T04:36:04.267Z,5.97
2018-05-04T04:37:04.215Z,6.04
2018-05-04T04:38:04.199Z,6.04
2018-05-04T04:39:04.115Z,6.07
2018-05-04T04:40:04.100Z,5.98
2018-05-04T04:41:04.017Z,5.94
2018-05-04T04:42:03.952Z,5.89
2018-05-04T04:43:03.948Z,5.79
2018-05-04T04:44:03.850Z,5.82
2018-05-04T04:45:03.799Z,5.80
2018-05-04T04:46:03.788Z,5.90
2018-05-04T04:47:03.703Z,5.97
2018-05-04T04:48:03.651Z,6.05
2018-05-04T04:49:03.629Z,6.11
2018-05-04T04:50:03.571Z,6.19
2018-05-04T04:51:03.506Z,6.16
2018-05-04T04:52:03.449Z,6.28
2018-05-04T04:53:03.388Z,6.31
2018-05-04T04:54:03.390Z,6.35
2018-05-04T04:55:03.290Z,6.31
2018-05-04T04:56:03.233Z,6.48
2018-05-04T04:57:03.180Z,6.45
2018-05-04T04:58:03.133Z,6.48
2018-05-04T04:59:03.126Z,6.51
2018-05-04T05:00:03.035Z,6.51
2018-05-04T05:01:02.973Z,6.49
2018-05-04T05:02:02.926Z,6.52
2018-05-04T05:03:02.877Z,6.57
2018-05-04T05:04:02.859Z,6.60
2018-05-04T05:05:02.777Z,6.60
2018-05-04T05:06:02.749Z,6.72
2018-05-04T05:07:02.665Z,6.66
2018-05-04T05:08:02.622Z,6.74
2018-05-04T05:09:02.607Z,6.57
2018-05-04T05:10:02.550Z,6.57
2018-05-04T05:11:02.462Z,6.54
2018-05-04T05:12:02.420Z,6.57
2018-05-04T05:13:02.360Z,6.57
2018-05-04T05:14:02.364Z,6.54
2018-05-04T05:15:02.292Z,6.54
2018-05-04T05:16:02.204Z,6.57
2018-05-04T05:17:02.158Z,6.60
2018-05-04T05:18:02.105Z,6.52
2018-05-04T05:19:02.060Z,6.64
2018-05-04T05:20:02.045Z,6.72
2018-05-04T05:21:01.951Z,6.64
2018-05-04T05:22:01.909Z,6.78
2018-05-04T05:23:01.858Z,6.87
2018-05-04T05:24:01.800Z,6.84
2018-05-04T05:25:01.800Z,6.88
2018-05-04T05:26:01.702Z,6.96
2018-05-04T05:27:01.647Z,6.97
2018-05-04T05:28:01.590Z,6.95
2018-05-04T05:29:01.546Z,7.05
2018-05-04T05:30:01.526Z,7.11
2018-05-04T05:31:01.441Z,7.06
2018-05-04T05:32:01.390Z,6.96
2018-05-04T05:33:01.336Z,7.15
2018-05-04T05:34:01.284Z,7.21
2018-05-04T05:35:01.276Z,7.14
2018-05-04T05:36:01.191Z,7.28
2018-05-04T05:37:02.221Z,7.24
2018-05-04T05:38:01.082Z,7.18
2018-05-04T05:39:01.070Z,7.25
2018-05-04T05:40:00.976Z,7.28
2018-05-04T05:41:00.927Z,7.33
2018-05-04T05:42:00.882Z,7.32
2018-05-04T05:43:00.854Z,7.32
2018-05-04T05:44:00.812Z,7.31
2018-05-04T05:45:00.766Z,7.42
2018-05-04T05:46:00.668Z,7.36
2018-05-04T05:47:00.624Z,7.33
2018-05-04T05:48:00.570Z,7.47
2018-05-04T05:49:00.542Z,7.48
2018-05-04T05:50:00.507Z,7.42
2018-05-04T05:51:00.464Z,7.50
2018-05-04T05:52:00.456Z,7.50
2018-05-04T05:53:00.359Z,7.51
2018-05-04T05:54:00.262Z,7.53
2018-05-04T05:55:00.213Z,7.61
2018-05-04T05:56:00.200Z,7.58
2018-05-04T05:57:00.116Z,7.66
2018-05-04T05:58:00.094Z,7.63
2018-05-04T05:59:00.019Z,7.58
2018-05-04T06:00:00.006Z,7.60
2018-05-04T06:00:59.908Z,7.80
2018-05-04T06:01:59.902Z,7.82
2018-05-04T06:02:59.821Z,7.75
2018-05-04T06:03:59.815Z,7.80
2018-05-04T06:04:59.706Z,7.72
2018-05-04T06:05:59.661Z,7.87
2018-05-04T06:06:59.613Z,7.85
2018-05-04T06:07:59.558Z,7.94
2018-05-04T06:08:59.570Z,7.93
2018-05-04T06:09:59.454Z,7.95
2018-05-04T06:10:59.406Z,8.00
2018-05-04T06:11:59.352Z,8.03
2018-05-04T06:12:59.306Z,8.12
2018-05-04T06:13:59.302Z,8.09
2018-05-04T06:14:59.205Z,8.10
2018-05-04T06:15:59.160Z,8.15
2018-05-04T06:16:59.108Z,8.13
2018-05-04T06:17:59.059Z,8.23
2018-05-04T06:18:59.033Z,8.19
2018-05-04T06:19:58.956Z,8.28
2018-05-04T06:20:58.897Z,8.34
2018-05-04T06:21:58.855Z,8.31
2018-05-04T06:22:58.830Z,8.36
2018-05-04T06:23:58.781Z,8.45
2018-05-04T06:24:58.706Z,8.48
2018-05-04T06:25:58.643Z,8.52
2018-05-04T06:26:58.591Z,8.48
2018-05-04T06:27:58.550Z,8.58
2018-05-04T06:28:58.534Z,8.63
2018-05-04T06:29:58.510Z,8.64
2018-05-04T06:30:58.400Z,8.67
2018-05-04T06:31:58.342Z,8.76
2018-05-04T06:32:58.303Z,8.73
2018-05-04T06:33:58.275Z,8.84
2018-05-04T06:35:00.289Z,8.85
2018-05-04T06:35:58.145Z,8.95
2018-05-04T06:36:58.115Z,8.99
2018-05-04T06:37:58.049Z,9.03
2018-05-04T06:38:58.028Z,9.10
2018-05-04T06:39:57.943Z,9.03
2018-05-04T06:40:57.937Z,9.16
2018-05-04T06:41:57.880Z,9.18
2018-05-04T06:42:57.795Z,9.22
2018-05-04T06:43:57.782Z,9.25
2018-05-04T06:44:57.689Z,9.32
2018-05-04T06:45:57.647Z,9.32
2018-05-04T06:46:57.632Z,9.34
2018-05-04T06:47:57.574Z,9.39
2018-05-04T06:48:57.493Z,9.46
2018-05-04T06:49:57.444Z,9.54
2018-05-04T06:50:57.401Z,9.54
2018-05-04T06:51:57.378Z,9.58
2018-05-04T06:52:57.295Z,9.66
2018-05-04T06:53:57.246Z,9.72
2018-05-04T06:54:57.231Z,9.64
2018-05-04T06:55:57.179Z,9.73
2018-05-04T06:56:57.094Z,9.77
2018-05-04T06:57:57.048Z,9.86
2018-05-04T06:58:57.035Z,9.94
2018-05-04T06:59:56.951Z,9.99
2018-05-04T07:00:56.937Z,10.01
2018-05-04T07:01:56.853Z,10.04
2018-05-04T07:02:56.811Z,10.04
2018-05-04T07:03:56.751Z,10.19
2018-05-04T07:04:56.744Z,10.17
2018-05-04T07:05:56.649Z,10.19
2018-05-04T07:06:56.610Z,10.26
2018-05-04T07:07:56.553Z,10.28
2018-05-04T07:08:56.650Z,10.38
2018-05-04T07:09:56.497Z,10.42
2018-05-04T07:10:56.417Z,10.46
2018-05-04T07:11:56.372Z,10.49
2018-05-04T07:12:56.313Z,10.60
2018-05-04T07:13:56.294Z,10.46
2018-05-04T07:14:56.291Z,10.64
2018-05-04T07:15:56.159Z,10.61
2018-05-04T07:16:56.152Z,10.61
2018-05-04T07:17:56.062Z,10.60
2018-05-04T07:18:56.018Z,10.69
2018-05-04T07:19:55.962Z,10.75
2018-05-04T07:20:55.946Z,10.81
2018-05-04T07:21:55.871Z,10.75
2018-05-04T07:22:55.849Z,10.76
2018-05-04T07:23:55.765Z,10.84
2018-05-04T07:24:55.729Z,10.87
2018-05-04T07:25:55.670Z,10.92
2018-05-04T07:26:55.651Z,10.94
2018-05-04T07:27:55.573Z,10.99
2018-05-04T07:28:55.542Z,11.11
2018-05-04T07:29:55.514Z,11.11
2018-05-04T07:30:55.426Z,11.15
2018-05-04T07:31:55.374Z,11.22
2018-05-04T07:32:55.325Z,11.27
2018-05-04T07:33:55.275Z,11.35
2018-05-04T07:34:55.263Z,11.40
2018-05-04T07:35:55.265Z,11.57
2018-05-04T07:36:55.130Z,11.51
2018-05-04T07:37:55.093Z,11.69
2018-05-04T07:38:55.067Z,11.72
2018-05-04T07:39:54.982Z,11.72
2018-05-04T07:40:54.946Z,11.88
2018-05-04T07:41:54.891Z,11.90
2018-05-04T07:42:54.875Z,12.04
2018-05-04T07:43:54.789Z,12.07
2018-05-04T07:44:54.749Z,12.20
2018-05-04T07:45:54.740Z,12.29
2018-05-04T07:46:54.656Z,12.29
2018-05-04T07:47:54.601Z,12.37
2018-05-04T07:48:54.561Z,12.40
2018-05-04T07:49:54.502Z,12.43
2018-05-04T07:50:54.492Z,12.54
2018-05-04T07:51:54.403Z,12.62
2018-05-04T07:52:54.368Z,12.73
2018-05-04T07:53:54.314Z,12.73
2018-05-04T07:54:54.264Z,12.79
2018-05-04T07:55:54.252Z,12.91
2018-05-04T07:56:54.167Z,13.03
2018-05-04T07:57:54.150Z,13.25
2018-05-04T07:58:54.075Z,13.31
2018-05-04T07:59:54.020Z,13.44
2018-05-04T08:00:53.972Z,13.52
2018-05-04T08:01:53.931Z,13.68
2018-05-04T08:02:54.008Z,13.90
2018-05-04T08:03:53.829Z,14.05
2018-05-04T08:04:53.781Z,14.36
2018-05-04T08:05:53.737Z,14.65
2018-05-04T08:06:53.698Z,14.91
2018-05-04T08:07:53.678Z,15.04
2018-05-04T08:08:53.596Z,15.18
2018-05-04T08:09:53.556Z,15.10
2018-05-04T08:10:53.501Z,15.19
2018-05-04T08:11:53.528Z,15.46
2018-05-04T08:12:53.413Z,15.59
2018-05-04T08:13:53.369Z,15.88
2018-05-04T08:14:53.313Z,16.05
2018-05-04T08:15:53.267Z,16.17
2018-05-04T08:16:53.257Z,16.53
2018-05-04T08:17:53.176Z,16.84
2018-05-04T08:18:53.135Z,17.09
2018-05-04T08:19:53.083Z,17.46
2018-05-04T08:20:53.073Z,17.68
2018-05-04T08:21:52.990Z,17.94
2018-05-04T08:22:52.968Z,18.23
2018-05-04T08:23:52.900Z,18.49
2018-05-04T08:24:52.858Z,18.53
2018-05-04T08:25:52.840Z,18.78
2018-05-04T08:26:52.768Z,18.84
2018-05-04T08:27:52.716Z,18.98
2018-05-04T08:28:52.679Z,19.22
2018-05-04T08:29:52.632Z,19.39
2018-05-04T08:30:52.619Z,19.64
2018-05-04T08:31:52.543Z,19.79
2018-05-04T08:32:52.491Z,19.91
2018-05-04T08:33:52.487Z,20.06
2018-05-04T08:34:52.400Z,20.40
2018-05-04T08:35:52.357Z,20.60
2018-05-04T08:36:52.317Z,20.92
2018-05-04T08:37:52.270Z,21.35
2018-05-04T08:38:52.268Z,21.70
2018-05-04T08:39:52.180Z,21.88
2018-05-04T08:40:52.221Z,22.11
2018-05-04T08:41:52.128Z,22.60
2018-05-04T08:42:52.073Z,22.96
2018-05-04T08:43:52.052Z,23.20
2018-05-04T08:44:51.973Z,23.41
2018-05-04T08:45:51.925Z,23.55
2018-05-04T08:46:51.939Z,23.77
2018-05-04T08:47:51.843Z,24.13
2018-05-04T08:48:51.830Z,24.36
2018-05-04T08:49:51.756Z,24.69
2018-05-04T08:50:51.747Z,24.93
2018-05-04T08:51:51.671Z,24.93
2018-05-04T08:52:51.636Z,24.89
2018-05-04T08:53:51.630Z,24.84
2018-05-04T08:54:51.554Z,24.86
2018-05-04T08:55:51.508Z,24.95
2018-05-04T08:56:51.503Z,24.84
2018-05-04T08:57:51.432Z,24.73
2018-05-04T08:58:51.387Z,24.70
2018-05-04T08:59:51.357Z,24.78
2018-05-04T09:00:51.310Z,24.74
2018-05-04T09:01:51.303Z,24.86
2018-05-04T09:02:51.224Z,24.81
2018-05-04T09:03:51.181Z,24.81
2018-05-04T09:04:51.144Z,24.81
2018-05-04T09:05:51.113Z,24.85
2018-05-04T09:06:51.121Z,24.70
2018-05-04T09:07:51.025Z,24.39
2018-05-04T09:08:50.988Z,23.76
2018-05-04T09:09:50.950Z,23.54
2018-05-04T09:10:50.905Z,23.55
2018-05-04T09:11:50.909Z,23.74
2018-05-04T09:12:50.844Z,23.95
2018-05-04T09:13:50.793Z,23.87
2018-05-04T09:14:50.745Z,23.77
2018-05-04T09:15:50.706Z,23.50
2018-05-04T09:16:50.698Z,23.51
2018-05-04T09:17:50.679Z,23.78
2018-05-04T09:18:50.649Z,23.98
2018-05-04T09:19:50.550Z,24.11
2018-05-04T09:20:50.512Z,24.30
2018-05-04T09:21:50.464Z,24.38
2018-05-04T09:22:50.538Z,24.53
2018-05-04T09:23:50.387Z,24.61
2018-05-04T09:24:50.444Z,24.76
2018-05-04T09:25:50.418Z,25.01
2018-05-04T09:26:50.288Z,25.08
2018-05-04T09:27:50.227Z,25.17
2018-05-04T09:28:50.189Z,25.31
2018-05-04T09:29:50.180Z,25.46
2018-05-04T09:30:50.189Z,25.58
2018-05-04T09:31:50.074Z,25.58
2018-05-04T09:32:50.034Z,25.58
2018-05-04T09:33:49.997Z,25.51
2018-05-04T09:34:50.030Z,25.54
2018-05-04T09:35:49.913Z,25.66
2018-05-04T09:36:49.877Z,25.78
2018-05-04T09:37:49.845Z,25.93
2018-05-04T09:38:49.797Z,26.06
2018-05-04T09:39:49.801Z,25.84
2018-05-04T09:40:49.722Z,25.35
2018-05-04T09:41:49.688Z,25.23
2018-05-04T09:42:49.644Z,25.18
2018-05-04T09:43:49.698Z,25.22
2018-05-04T09:44:49.608Z,25.41
2018-05-04T09:45:49.527Z,25.62
2018-05-04T09:46:49.489Z,25.68
2018-05-04T09:47:49.449Z,25.88
2018-05-04T09:48:49.410Z,26.06
2018-05-04T09:49:49.407Z,26.22
2018-05-04T09:50:49.369Z,26.16
2018-05-04T09:51:49.298Z,26.26
2018-05-04T09:52:49.257Z,26.26
2018-05-04T09:53:49.383Z,26.40
2018-05-04T09:54:49.180Z,26.43
2018-05-04T09:55:49.190Z,26.56
2018-05-04T09:56:49.109Z,26.60
2018-05-04T09:57:49.078Z,26.83
2018-05-04T09:58:49.027Z,26.84
2018-05-04T09:59:48.999Z,26.90
2018-05-04T10:00:49.000Z,26.92
2018-05-04T10:01:48.918Z,26.74
2018-05-04T10:02:48.874Z,26.63
2018-05-04T10:03:48.842Z,26.70
2018-05-04T10:04:48.809Z,26.71
2018-05-04T10:05:48.802Z,26.77
2018-05-04T10:06:48.731Z,26.90
2018-05-04T10:07:48.689Z,26.78
2018-05-04T10:08:48.649Z,26.80
2018-05-04T10:09:48.615Z,26.84
2018-05-04T10:10:48.631Z,26.73
2018-05-04T10:11:48.537Z,26.89
2018-05-04T10:12:48.506Z,26.89
2018-05-04T10:13:48.465Z,27.03
2018-05-04T10:14:48.425Z,27.14
2018-05-04T10:15:48.444Z,27.27
2018-05-04T10:16:48.351Z,27.18
2018-05-04T10:17:48.313Z,27.32
2018-05-04T10:18:48.276Z,27.33
2018-05-04T10:19:48.240Z,27.44
2018-05-04T10:20:48.242Z,27.52
2018-05-04T10:21:48.163Z,27.59
2018-05-04T10:22:48.128Z,27.59
2018-05-04T10:23:48.097Z,27.67
2018-05-04T10:24:48.055Z,27.63
2018-05-04T10:25:48.054Z,27.67
2018-05-04T10:26:47.979Z,27.63
2018-05-04T10:27:47.960Z,27.51
2018-05-04T10:28:47.939Z,27.58
2018-05-04T10:29:47.866Z,27.64
2018-05-04T10:30:47.835Z,27.59
2018-05-04T10:31:47.798Z,27.48
2018-05-04T10:32:47.798Z,27.37
2018-05-04T10:33:47.722Z,27.12
2018-05-04T10:34:47.717Z,27.05
2018-05-04T10:35:47.653Z,27.08
2018-05-04T10:36:47.610Z,27.20
2018-05-04T10:37:47.570Z,27.18
2018-05-04T10:38:47.667Z,27.32
2018-05-04T10:39:47.504Z,27.21
2018-05-04T10:40:47.468Z,27.33
2018-05-04T10:41:47.425Z,27.32
2018-05-04T10:42:47.387Z,27.17
2018-05-04T10:43:47.394Z,27.35
2018-05-04T10:44:47.317Z,27.21
2018-05-04T10:45:47.280Z,27.40
2018-05-04T10:46:47.240Z,27.51
2018-05-04T10:47:47.206Z,27.52
2018-05-04T10:48:47.204Z,27.70
2018-05-04T10:49:47.169Z,27.65
2018-05-04T10:50:47.095Z,27.70
2018-05-04T10:51:47.098Z,27.75
2018-05-04T10:52:47.146Z,27.71
2018-05-04T10:53:47.000Z,27.83
2018-05-04T10:54:46.993Z,27.47
2018-05-04T10:55:46.924Z,27.15
2018-05-04T10:56:48.118Z,27.02
2018-05-04T10:57:46.878Z,27.11
2018-05-04T10:58:46.815Z,26.90
2018-05-04T10:59:46.781Z,26.40
2018-05-04T11:00:46.937Z,25.93
2018-05-04T11:01:46.711Z,25.62
2018-05-04T11:02:46.700Z,25.54
2018-05-04T11:03:46.623Z,24.96
2018-05-04T11:04:46.582Z,25.06
2018-05-04T11:05:46.544Z,25.35
2018-05-04T11:06:46.556Z,25.75
2018-05-04T11:07:46.479Z,26.06
2018-05-04T11:08:47.515Z,26.25
2018-05-04T11:09:46.419Z,26.45
2018-05-04T11:10:46.369Z,26.68
2018-05-04T11:11:46.365Z,26.93
2018-05-04T11:12:46.286Z,27.08
2018-05-04T11:13:46.248Z,27.27
2018-05-04T11:14:46.253Z,27.30
2018-05-04T11:15:46.182Z,27.30
2018-05-04T11:16:46.165Z,27.33
2018-05-04T11:17:46.105Z,26.45
2018-05-04T11:18:46.105Z,26.40
2018-05-04T11:19:46.035Z,26.48
2018-05-04T11:20:46.003Z,26.77
2018-05-04T11:21:45.978Z,26.95
2018-05-04T11:22:45.925Z,27.15
2018-05-04T11:23:45.929Z,27.36
2018-05-04T11:24:45.852Z,27.39
2018-05-04T11:25:45.811Z,27.47
2018-05-04T11:26:45.779Z,27.63
2018-05-04T11:27:45.742Z,27.59
2018-05-04T11:28:45.741Z,27.75
2018-05-04T11:29:45.693Z,27.93
2018-05-04T11:30:45.636Z,28.04
2018-05-04T11:31:45.594Z,27.95
2018-05-04T11:32:45.560Z,27.98
2018-05-04T11:33:45.555Z,28.00
2018-05-04T11:34:45.490Z,27.96
2018-05-04T11:35:45.450Z,27.96
2018-05-04T11:36:45.432Z,27.90
2018-05-04T11:37:45.400Z,27.92
2018-05-04T11:38:45.378Z,27.93
2018-05-04T11:39:45.308Z,28.05
2018-05-04T11:40:45.341Z,28.04
2018-05-04T11:41:45.232Z,28.05
2018-05-04T11:42:45.202Z,28.00
2018-05-04T11:43:45.167Z,28.02
2018-05-04T11:44:45.130Z,28.01
2018-05-04T11:45:45.123Z,28.12
2018-05-04T11:46:45.059Z,27.93
2018-05-04T11:47:45.020Z,28.01
2018-05-04T11:48:45.034Z,27.93
2018-05-04T11:49:44.944Z,27.93
2018-05-04T11:50:44.904Z,28.05
2018-05-04T11:51:44.905Z,28.04
2018-05-04T11:52:44.836Z,28.04
2018-05-04T11:53:44.798Z,27.95
2018-05-04T11:54:44.765Z,27.83
2018-05-04T11:55:44.734Z,27.75
2018-05-04T11:56:44.728Z,27.71
2018-05-04T11:57:44.742Z,27.65
2018-05-04T11:58:44.619Z,27.73
2018-05-04T11:59:44.642Z,27.74
2018-05-04T12:00:44.547Z,27.87
2018-05-04T12:01:44.513Z,27.59
2018-05-04T12:02:44.475Z,27.65
2018-05-04T12:03:44.445Z,27.65
2018-05-04T12:04:44.494Z,27.73
2018-05-04T12:05:44.367Z,27.67
2018-05-04T12:06:44.374Z,27.70
2018-05-04T12:07:44.316Z,27.78
2018-05-04T12:08:44.257Z,27.63
2018-05-04T12:09:44.223Z,27.47
2018-05-04T12:10:44.213Z,27.51
2018-05-04T12:11:44.187Z,27.51
2018-05-04T12:12:44.120Z,27.02
2018-05-04T12:13:44.082Z,26.19
2018-05-04T12:14:44.044Z,26.21
2018-05-04T12:15:44.015Z,26.19
2018-05-04T12:16:44.105Z,26.31
2018-05-04T12:17:43.935Z,26.60
2018-05-04T12:18:43.937Z,26.73
2018-05-04T12:19:43.899Z,27.05
2018-05-04T12:20:43.831Z,27.15
2018-05-04T12:21:43.795Z,27.22
2018-05-04T12:22:43.762Z,27.07
2018-05-04T12:23:43.723Z,27.03
2018-05-04T12:24:43.719Z,26.19
2018-05-04T12:25:43.644Z,26.21
2018-05-04T12:26:43.613Z,26.38
2018-05-04T12:27:43.616Z,26.68
2018-05-04T12:28:43.535Z,26.90
2018-05-04T12:29:43.498Z,26.60
2018-05-04T12:30:43.504Z,26.31
2018-05-04T12:31:43.438Z,26.43
2018-05-04T12:32:43.391Z,26.60
2018-05-04T12:33:43.370Z,26.70
2018-05-04T12:34:43.324Z,26.93
2018-05-04T12:35:43.312Z,27.02
2018-05-04T12:36:43.252Z,26.75
2018-05-04T12:37:43.253Z,26.48
2018-05-04T12:38:43.174Z,26.60
2018-05-04T12:39:43.139Z,26.83
2018-05-04T12:40:43.104Z,26.60
2018-05-04T12:41:43.074Z,26.60
2018-05-04T12:42:43.075Z,26.75
2018-05-04T12:43:42.993Z,26.95
2018-05-04T12:44:42.965Z,26.97
2018-05-04T12:45:42.977Z,27.17
2018-05-04T12:46:42.897Z,27.20
2018-05-04T12:47:42.914Z,27.30
2018-05-04T12:48:42.814Z,27.35
2018-05-04T12:49:42.803Z,27.32
2018-05-04T12:50:42.766Z,27.42
2018-05-04T12:51:42.708Z,27.52
2018-05-04T12:52:42.714Z,27.52
2018-05-04T12:53:42.809Z,27.64
2018-05-04T12:54:42.608Z,27.67
2018-05-04T12:55:42.560Z,27.82
2018-05-04T12:56:42.567Z,27.90
2018-05-04T12:57:42.598Z,27.90
2018-05-04T12:58:42.487Z,27.95
2018-05-04T12:59:42.416Z,28.04
2018-05-04T13:00:42.390Z,28.04
2018-05-04T13:01:42.344Z,27.98
2018-05-04T13:02:42.306Z,27.85
2018-05-04T13:03:42.307Z,27.78
2018-05-04T13:04:42.237Z,27.85
2018-05-04T13:05:42.208Z,27.86